Time;durP1;ratioP1;P1;durP2;ratioP2;P2;SDS_P1;SDS_P2;PMS_P1;PMS_P2;Temp;Humidity;BMP_temperature;BMP_pressure;BME280_temperature;BME280_humidity;BME280_pressure;Samples;Min_cycle;Max_cycle;Signal;HPM_P1;HPM_P2
2022/02/20 00:01:00;;;;;;;12.40;4.65;;;;;;;4.76;69.32;97096.63;5025237;28;20065;-58
2022/02/20 00:03:27;;;;;;;14.13;4.78;;;;;;;5.33;70.13;97193.78;5024932;28;20053;-62
2022/02/20 00:05:54;;;;;;;15.90;4.82;;;;;;;5.44;68.77;97197.75;5025233;28;20128;-61
2022/02/20 00:08:20;;;;;;;14.48;5.75;;;;;;;5.51;69.50;97198.03;5025050;28;20055;-61
2022/02/20 00:10:47;;;;;;;17.77;5.55;;;;;;;5.51;69.11;97195.28;5025106;28;20063;-59
2022/02/20 00:13:14;;;;;;;10.88;4.78;;;;;;;5.41;68.99;97184.69;5025113;28;20059;-57
2022/02/20 00:15:40;;;;;;;23.27;8.18;;;;;;;5.57;68.98;97193.94;5025501;28;20119;-61
2022/02/20 00:18:07;;;;;;;17.35;6.90;;;;;;;5.33;69.75;97149.84;5023563;28;20054;-59
2022/02/20 00:20:34;;;;;;;22.58;7.03;;;;;;;5.58;70.33;97267.00;5025020;28;20060;-58
2022/02/20 00:23:03;;;;;;;18.90;7.70;;;;;;;5.44;70.11;97179.34;5024894;28;20056;-58
2022/02/20 00:25:34;;;;;;;16.45;7.28;;;;;;;5.23;69.83;97134.56;5023022;28;20076;-58
2022/02/20 00:28:02;;;;;;;18.30;7.13;;;;;;;5.09;69.04;97097.53;5022961;28;20369;-61
2022/02/20 00:30:30;;;;;;;20.88;7.03;;;;;;;5.62;68.82;97186.31;5024927;28;20056;-61
2022/02/20 00:32:58;;;;;;;22.73;9.18;;;;;;;5.69;67.91;97188.53;5024863;28;20541;-62
2022/02/20 00:35:29;;;;;;;21.42;7.30;;;;;;;5.10;68.70;97096.41;5024159;28;20061;-62
2022/02/20 00:37:56;;;;;;;19.30;7.97;;;;;;;5.70;68.94;97182.72;5024614;28;20504;-57
2022/02/20 00:40:24;;;;;;;19.40;9.45;;;;;;;5.78;67.99;97186.53;5009938;28;20064;-62
2022/02/20 00:42:51;;;;;;;20.33;9.88;;;;;;;5.71;67.75;97183.50;5004529;28;20507;-61
2022/02/20 00:45:18;;;;;;;27.48;10.30;;;;;;;5.92;67.38;97209.06;5004477;28;20077;-61
2022/02/20 00:47:45;;;;;;;22.73;8.70;;;;;;;5.69;66.10;97141.81;5004841;28;20054;-58
2022/02/20 00:50:12;;;;;;;20.25;8.52;;;;;;;6.02;66.03;97194.91;5004690;28;20497;-62
2022/02/20 00:52:39;;;;;;;18.92;7.70;;;;;;;6.04;65.63;97198.94;5004449;28;20635;-61
2022/02/20 00:55:06;;;;;;;18.38;7.60;;;;;;;5.73;64.98;97142.75;5003189;28;20053;-58
2022/02/20 00:57:34;;;;;;;22.50;9.02;;;;;;;5.58;65.19;97129.63;5004677;28;20067;-58
2022/02/20 01:00:01;;;;;;;23.40;7.80;;;;;;;5.88;65.28;97164.16;5004592;28;20175;-61
2022/02/20 01:02:27;;;;;;;17.90;6.45;;;;;;;5.46;66.40;97126.81;5004514;28;20054;-60
2022/02/20 01:04:54;;;;;;;16.80;6.60;;;;;;;5.89;66.12;97176.75;5004132;28;20065;-60
2022/02/20 01:07:22;;;;;;;18.95;6.65;;;;;;;5.99;65.89;97179.09;5004323;28;20057;-61
2022/02/20 01:09:49;;;;;;;20.17;7.28;;;;;;;5.51;65.67;97107.38;5003440;28;20050;-58
2022/02/20 01:12:18;;;;;;;22.92;8.00;;;;;;;5.97;65.84;97170.38;5004111;28;20137;-58
2022/02/20 01:14:45;;;;;;;19.92;6.35;;;;;;;5.90;66.69;97176.41;5003301;28;20090;-61
2022/02/20 01:17:14;;;;;;;17.63;6.15;;;;;;;5.97;66.29;97170.38;5004297;28;20501;-61
2022/02/20 01:19:41;;;;;;;19.17;6.60;;;;;;;6.00;66.71;97147.69;5002508;28;20518;-57
2022/02/20 01:22:09;;;;;;;17.63;7.20;;;;;;;5.96;67.19;97135.75;5003955;28;20053;-61
2022/02/20 01:24:36;;;;;;;22.23;10.15;;;;;;;5.90;67.32;97126.13;5004148;28;20445;-58
2022/02/20 01:27:03;;;;;;;22.35;10.68;;;;;;;5.84;67.88;97132.97;5004028;28;20050;-58
2022/02/20 01:29:29;;;;;;;19.92;9.25;;;;;;;5.91;67.14;97136.78;5003944;28;20050;-58
2022/02/20 01:31:56;;;;;;;17.33;6.65;;;;;;;5.80;66.96;97148.53;5004293;28;20456;-61
2022/02/20 01:34:23;;;;;;;18.48;6.80;;;;;;;5.66;69.37;97142.47;5003870;28;20056;-57
2022/02/20 01:36:50;;;;;;;16.73;6.10;;;;;;;5.27;71.68;97145.69;5003405;28;20066;-57
2022/02/20 01:39:16;;;;;;;18.33;6.45;;;;;;;5.12;72.03;97138.06;5007092;28;20508;-62
2022/02/20 01:41:43;;;;;;;19.75;7.15;;;;;;;5.17;71.86;97132.38;5023315;28;20052;-61
2022/02/20 01:44:10;;;;;;;10.18;4.75;;;;;;;5.09;72.64;97144.22;5023446;28;20061;-58
2022/02/20 01:46:37;;;;;;;14.77;6.00;;;;;;;4.56;72.87;97059.78;5023414;28;20054;-61
2022/02/20 01:49:03;;;;;;;18.25;6.03;;;;;;;5.20;72.63;97140.72;5023916;28;20050;-58
2022/02/20 01:51:30;;;;;;;14.25;6.47;;;;;;;5.14;73.01;97136.56;5023120;28;20057;-59
2022/02/20 01:53:57;;;;;;;18.70;7.43;;;;;;;5.09;74.12;97130.47;5023123;28;20531;-60
2022/02/20 01:56:24;;;;;;;26.20;9.60;;;;;;;5.13;73.66;97128.66;5023050;28;20389;-62
2022/02/20 01:58:50;;;;;;;22.63;8.88;;;;;;;5.07;74.26;97124.50;5023228;28;20558;-60
2022/02/20 02:01:17;;;;;;;22.98;9.63;;;;;;;5.06;73.86;97133.91;5023488;28;20065;-58
2022/02/20 02:03:44;;;;;;;23.23;9.38;;;;;;;5.14;73.81;97135.78;5023421;28;20681;-58
2022/02/20 02:06:10;;;;;;;26.38;9.70;;;;;;;5.10;74.16;97090.91;5023541;28;20098;-57
2022/02/20 02:08:39;;;;;;;31.20;9.75;;;;;;;5.25;73.85;97115.03;5023049;28;20054;-61
2022/02/20 02:11:05;;;;;;;30.45;13.18;;;;;;;5.23;73.43;97104.34;5021620;28;20064;-61
2022/02/20 02:13:32;;;;;;;26.52;13.27;;;;;;;5.13;73.89;97092.97;5022695;28;20050;-58
2022/02/20 02:15:59;;;;;;;37.00;13.82;;;;;;;5.37;72.76;97106.84;5022424;28;20543;-57
2022/02/20 02:18:25;;;;;;;29.17;12.85;;;;;;;4.76;72.98;97025.28;5021609;28;20053;-57
2022/02/20 02:20:52;;;;;;;33.20;14.23;;;;;;;5.25;72.32;97115.81;5023628;28;20050;-61
2022/02/20 02:23:19;;;;;;;23.33;11.45;;;;;;;5.01;72.68;97058.00;5027279;28;20052;-57
2022/02/20 02:25:49;;;;;;;21.20;8.38;;;;;;;5.43;71.30;97111.81;5027068;28;20058;-58
2022/02/20 02:28:16;;;;;;;17.30;7.45;;;;;;;4.97;70.38;97020.59;5027412;28;20049;-57
2022/02/20 02:30:43;;;;;;;15.18;6.50;;;;;;;5.55;70.05;97125.59;5027347;28;20053;-57
2022/02/20 02:33:10;;;;;;;13.88;5.72;;;;;;;5.42;70.04;97101.16;5027428;28;20061;-58
2022/02/20 02:35:36;;;;;;;16.45;6.85;;;;;;;5.55;69.71;97124.78;5025274;28;20060;-61
2022/02/20 02:38:05;;;;;;;13.20;5.95;;;;;;;5.45;69.91;97126.03;5027057;28;20469;-61
2022/02/20 02:40:33;;;;;;;11.13;4.38;;;;;;;4.86;70.37;97046.81;5011915;28;20068;-61
2022/02/20 02:42:59;;;;;;;9.65;4.30;;;;;;;5.38;70.10;97130.41;5006719;28;20052;-57
2022/02/20 02:45:27;;;;;;;10.93;4.00;;;;;;;5.31;70.60;97124.69;5005840;28;20077;-57
2022/02/20 02:47:54;;;;;;;11.32;4.68;;;;;;;5.29;70.21;97121.44;5005903;28;20061;-62
2022/02/20 02:50:24;;;;;;;12.38;4.97;;;;;;;4.95;69.58;97050.34;5007115;28;20086;-58
2022/02/20 02:52:51;;;;;;;21.10;7.78;;;;;;;5.50;70.21;97136.00;5007057;28;20064;-60
2022/02/20 02:55:18;;;;;;;18.23;7.72;;;;;;;5.54;69.53;97139.66;5006514;28;20070;-61
2022/02/20 02:57:44;;;;;;;18.92;6.28;;;;;;;5.52;69.60;97137.25;5006706;28;20073;-60
2022/02/20 03:00:11;;;;;;;15.98;5.90;;;;;;;5.14;69.81;97064.41;5006863;28;20046;-57
2022/02/20 03:02:39;;;;;;;12.57;5.60;;;;;;;5.49;69.77;97104.16;5006798;28;20053;-57
2022/02/20 03:05:06;;;;;;;20.10;6.75;;;;;;;5.56;70.05;97118.97;5006156;28;20049;-61
2022/02/20 03:07:33;;;;;;;14.57;5.65;;;;;;;5.53;70.28;97121.59;5006688;28;20057;-61
2022/02/20 03:10:00;;;;;;;15.02;6.35;;;;;;;5.47;70.42;97111.94;5007085;28;20451;-61
2022/02/20 03:12:26;;;;;;;16.23;5.82;;;;;;;5.53;69.82;97105.88;5006591;28;20164;-61
2022/02/20 03:14:53;;;;;;;12.85;6.18;;;;;;;5.56;69.61;97099.75;5004718;28;20076;-62
2022/02/20 03:17:20;;;;;;;20.63;6.22;;;;;;;5.71;68.79;97092.81;5006240;28;20508;-61
2022/02/20 03:19:47;;;;;;;12.93;5.07;;;;;;;5.29;71.43;97096.75;5005976;28;20049;-60
2022/02/20 03:22:15;;;;;;;13.77;5.55;;;;;;;4.71;72.78;97028.22;5005029;28;20064;-57
2022/02/20 03:24:41;;;;;;;18.13;5.38;;;;;;;5.22;72.93;97094.53;5006457;28;20054;-61
2022/02/20 03:27:10;;;;;;;11.90;5.07;;;;;;;5.27;72.21;97096.25;5006398;28;20053;-58
2022/02/20 03:29:36;;;;;;;13.10;5.13;;;;;;;5.39;71.86;97102.63;5005355;28;20190;-58
2022/02/20 03:32:04;;;;;;;13.20;6.03;;;;;;;5.53;70.56;97105.09;5006062;28;20050;-61
2022/02/20 03:34:30;;;;;;;14.40;4.80;;;;;;;5.57;70.54;97106.03;5005471;28;20061;-57
2022/02/20 03:36:57;;;;;;;10.70;4.45;;;;;;;5.13;70.64;97040.81;5004565;28;20061;-57
2022/02/20 03:39:24;;;;;;;10.38;4.70;;;;;;;5.51;70.65;97090.91;5011332;28;20041;-58
2022/02/20 03:41:50;;;;;;;13.65;5.20;;;;;;;5.54;70.62;97079.22;5026009;28;20049;-61
2022/02/20 03:44:17;;;;;;;14.15;5.13;;;;;;;5.56;70.71;97082.47;5026025;28;20054;-62
2022/02/20 03:46:44;;;;;;;12.52;5.30;;;;;;;4.80;71.13;96982.31;5025849;28;20487;-57
2022/02/20 03:49:10;;;;;;;26.95;8.88;;;;;;;5.55;71.20;97097.31;5025383;28;20045;-61
2022/02/20 03:51:37;;;;;;;39.42;13.45;;;;;;;5.58;70.74;97099.41;5024093;28;20508;-60
2022/02/20 03:54:04;;;;;;;47.60;22.85;;;;;;;5.55;70.62;97086.31;5024099;28;20050;-58
2022/02/20 03:56:31;;;;;;;30.77;13.15;;;;;;;5.51;70.92;97079.91;5025391;28;20061;-57
2022/02/20 03:59:00;;;;;;;44.55;14.65;;;;;;;5.52;70.47;97087.00;5023811;28;20594;-57
2022/02/20 04:01:27;;;;;;;32.80;11.13;;;;;;;5.62;69.51;97075.59;5023809;28;20128;-61
2022/02/20 04:03:54;;;;;;;24.08;8.52;;;;;;;5.58;69.64;97069.19;5025415;28;20059;-59
2022/02/20 04:06:21;;;;;;;47.10;15.68;;;;;;;5.48;70.31;97064.09;5025369;28;20425;-61
2022/02/20 04:08:48;;;;;;;26.48;9.15;;;;;;;5.43;70.98;97067.88;5024862;28;20064;-62
2022/02/20 04:11:15;;;;;;;16.77;6.95;;;;;;;5.28;72.40;97059.44;5025298;28;20050;-62
2022/02/20 04:13:42;;;;;;;19.10;7.93;;;;;;;5.41;71.36;97059.16;5024963;28;20635;-58
2022/02/20 04:16:08;;;;;;;51.53;16.20;;;;;;;5.12;70.97;96993.34;5023359;28;20049;-58
2022/02/20 04:18:35;;;;;;;47.05;14.48;;;;;;;5.32;71.13;97049.38;5025273;28;20060;-60
2022/02/20 04:21:02;;;;;;;19.85;8.75;;;;;;;5.46;70.13;97066.38;5025462;28;20084;-61
2022/02/20 04:23:30;;;;;;;17.05;8.23;;;;;;;5.47;70.12;97068.78;5024789;28;20075;-60
2022/02/20 04:26:01;;;;;;;17.80;8.13;;;;;;;5.46;70.38;97061.69;5024419;28;20049;-61
2022/02/20 04:28:30;;;;;;;16.60;7.22;;;;;;;5.49;70.51;97126.13;5024862;28;20136;-61
2022/02/20 04:30:57;;;;;;;63.05;19.42;;;;;;;5.32;71.31;97043.88;5024622;28;20152;-60
2022/02/20 04:33:24;;;;;;;71.82;29.27;;;;;;;5.36;71.42;97050.31;5024544;28;20061;-61
2022/02/20 04:35:51;;;;;;;17.52;7.78;;;;;;;5.28;71.12;97051.19;5024137;28;20049;-57
2022/02/20 04:38:17;;;;;;;17.15;6.85;;;;;;;5.40;70.39;97040.25;5024627;28;20071;-61
2022/02/20 04:40:44;;;;;;;13.23;6.35;;;;;;;5.40;70.60;97045.75;5008896;28;20058;-62
2022/02/20 04:43:11;;;;;;;15.40;5.70;;;;;;;5.55;69.89;97056.09;5003440;28;20056;-58
2022/02/20 04:45:37;;;;;;;15.05;6.15;;;;;;;5.64;69.30;97045.84;5004626;28;20056;-59
2022/02/20 04:48:04;;;;;;;12.88;6.28;;;;;;;5.03;69.10;96969.84;5004919;28;20447;-61
2022/02/20 04:50:31;;;;;;;16.45;6.88;;;;;;;5.64;69.43;97051.34;5004291;28;20054;-61
2022/02/20 04:52:58;;;;;;;23.45;8.77;;;;;;;5.77;68.72;97044.75;5004518;28;20075;-62
2022/02/20 04:55:24;;;;;;;16.27;7.72;;;;;;;5.47;71.36;97051.53;5004606;28;20046;-58
2022/02/20 04:57:51;;;;;;;19.15;7.78;;;;;;;4.45;75.73;96979.81;5004539;28;20049;-59
2022/02/20 05:00:18;;;;;;;27.27;10.23;;;;;;;4.88;75.99;97074.75;5004469;28;20398;-61
2022/02/20 05:02:45;;;;;;;14.15;7.22;;;;;;;4.09;79.52;96985.03;5004482;28;20539;-58
2022/02/20 05:05:12;;;;;;;15.40;7.40;;;;;;;4.85;78.46;97069.94;5002677;28;20057;-58
2022/02/20 05:07:38;;;;;;;16.00;7.75;;;;;;;4.95;77.70;97050.34;5002909;28;20046;-57
2022/02/20 05:10:05;;;;;;;20.08;7.93;;;;;;;4.62;77.03;96971.47;5004349;28;20448;-60
2022/02/20 05:12:32;;;;;;;21.95;8.27;;;;;;;5.27;74.75;97035.84;5004513;28;20050;-58
2022/02/20 05:14:59;;;;;;;34.83;10.70;;;;;;;5.32;72.90;97043.88;5004264;28;20053;-61
2022/02/20 05:17:26;;;;;;;18.45;7.22;;;;;;;5.37;72.76;97035.44;5002692;28;20085;-61
2022/02/20 05:19:53;;;;;;;14.70;6.03;;;;;;;5.25;72.58;97032.66;5003027;28;20240;-56
2022/02/20 05:22:20;;;;;;;28.27;9.90;;;;;;;5.42;72.44;97054.47;5002715;28;20393;-61
2022/02/20 05:24:49;;;;;;;25.33;9.65;;;;;;;5.26;71.56;97045.25;5003629;28;20050;-61
2022/02/20 05:27:16;;;;;;;27.92;9.90;;;;;;;5.46;71.18;97061.69;5003878;28;20050;-58
2022/02/20 05:29:43;;;;;;;22.67;9.38;;;;;;;5.60;70.82;97072.38;5004310;28;20053;-58
2022/02/20 05:32:09;;;;;;;40.58;14.88;;;;;;;5.70;70.98;97071.97;5003732;28;20069;-61
2022/02/20 05:34:36;;;;;;;23.17;9.80;;;;;;;5.77;70.20;97078.53;5003838;28;20076;-59
2022/02/20 05:37:03;;;;;;;47.35;17.05;;;;;;;5.80;70.00;97082.56;5003860;28;20076;-61
2022/02/20 05:39:29;;;;;;;38.30;18.33;;;;;;;5.83;70.08;97076.41;5008743;28;20057;-61
2022/02/20 05:41:56;;;;;;;49.05;20.13;;;;;;;5.93;70.08;97070.47;5023704;28;20057;-60
2022/02/20 05:44:23;;;;;;;58.58;23.98;;;;;;;5.93;69.62;97071.28;5023139;28;20048;-57
2022/02/20 05:46:50;;;;;;;56.75;21.50;;;;;;;5.98;69.78;97078.50;5022123;28;20075;-61
2022/02/20 05:49:16;;;;;;;50.50;18.58;;;;;;;6.01;69.98;97086.88;5023278;28;20057;-60
2022/02/20 05:51:43;;;;;;;36.78;14.02;;;;;;;5.61;70.13;97043.78;5023663;28;20049;-61
2022/02/20 05:54:10;;;;;;;44.45;13.52;;;;;;;5.96;70.46;97086.28;5022126;28;20487;-57
2022/02/20 05:56:36;;;;;;;52.95;16.50;;;;;;;5.60;70.37;97044.91;5021292;28;20057;-61
2022/02/20 05:59:03;;;;;;;56.72;25.17;;;;;;;5.67;70.27;97061.66;5023504;28;20547;-58
2022/02/20 06:01:31;;;;;;;71.00;30.02;;;;;;;5.80;69.01;97049.56;5023301;28;20056;-61
2022/02/20 06:03:58;;;;;;;64.03;27.30;;;;;;;6.25;69.80;97135.63;5023184;28;20057;-61
2022/02/20 06:06:31;;;;;;;47.08;20.80;;;;;;;5.77;71.68;97133.47;5023224;28;20254;-61
2022/02/20 06:08:58;;;;;;;49.58;20.77;;;;;;;6.10;71.72;97130.78;5023333;28;20080;-58
2022/02/20 06:11:26;;;;;;;74.28;28.42;;;;;;;6.30;70.67;97140.91;5021850;28;20084;-61
2022/02/20 06:13:53;;;;;;;87.07;33.65;;;;;;;6.42;70.44;97142.91;5021814;28;20508;-57
2022/02/20 06:16:20;;;;;;;84.07;35.25;;;;;;;5.99;68.53;97088.38;5023369;28;20049;-61
2022/02/20 06:18:47;;;;;;;29.48;10.93;;;;;;;6.02;70.78;97150.94;5021445;28;20084;-57
2022/02/20 06:21:14;;;;;;;26.05;11.27;;;;;;;6.27;70.60;97144.34;5023051;28;20793;-57
2022/02/20 06:23:41;;;;;;;27.23;12.27;;;;;;;6.61;69.89;97141.19;5021639;28;20099;-61
2022/02/20 06:26:08;;;;;;;30.92;13.80;;;;;;;6.62;70.12;97131.81;5023247;28;20488;-58
2022/02/20 06:28:34;;;;;;;22.95;11.00;;;;;;;6.69;70.13;97115.50;5023227;28;20144;-58
2022/02/20 06:31:01;;;;;;;28.02;13.02;;;;;;;6.70;70.31;97100.59;5023366;28;20061;-58
2022/02/20 06:33:28;;;;;;;33.65;17.17;;;;;;;6.98;69.30;97120.81;5023343;28;20065;-61
2022/02/20 06:35:55;;;;;;;23.15;11.60;;;;;;;6.48;68.40;97020.47;5023049;28;20058;-62
2022/02/20 06:38:22;;;;;;;18.50;8.07;;;;;;;7.15;67.24;97134.31;5023550;28;20415;-61
2022/02/20 06:40:48;;;;;;;18.05;6.90;;;;;;;7.11;68.42;97133.41;5007273;28;20061;-61
2022/02/20 06:43:15;;;;;;;15.82;6.65;;;;;;;7.07;68.80;97126.97;5003709;28;20057;-61
2022/02/20 06:45:42;;;;;;;18.13;6.97;;;;;;;7.06;69.33;97128.16;5001975;28;20093;-61
2022/02/20 06:48:08;;;;;;;33.35;11.60;;;;;;;7.34;68.18;97125.44;5003465;28;20437;-58
2022/02/20 06:50:35;;;;;;;91.32;24.48;;;;;;;7.45;67.05;97093.50;5002054;28;20073;-58
2022/02/20 06:53:05;;;;;;;81.95;26.00;;;;;;;7.35;66.95;97056.22;5003020;28;20057;-58
2022/02/20 06:55:32;;;;;;;70.50;23.85;;;;;;;7.52;65.93;97039.38;5003382;28;20058;-59
2022/02/20 06:58:00;;;;;;;146.02;49.63;;;;;;;8.03;64.10;97097.53;5001289;28;20057;-61
2022/02/20 07:00:26;;;;;;;58.72;23.00;;;;;;;8.01;64.56;97097.09;5002990;28;20053;-57
2022/02/20 07:02:53;;;;;;;42.92;19.25;;;;;;;8.23;62.45;97102.06;5003226;28;20053;-57
2022/02/20 07:05:20;;;;;;;50.20;21.02;;;;;;;8.35;61.78;97099.22;5003453;28;20571;-61
2022/02/20 07:07:47;;;;;;;51.00;23.60;;;;;;;8.45;61.45;97109.75;5003487;28;20069;-62
2022/02/20 07:10:13;;;;;;;58.65;26.70;;;;;;;8.53;60.64;97111.53;5006350;28;20062;-59
2022/02/20 07:12:40;;;;;;;61.47;29.00;;;;;;;8.39;60.54;97080.81;5005922;28;20050;-58
2022/02/20 07:15:08;;;;;;;55.30;26.45;;;;;;;8.65;60.40;97115.00;5005894;28;20069;-60
2022/02/20 07:17:34;;;;;;;52.95;25.48;;;;;;;8.73;60.02;97110.47;5006073;28;20057;-61
2022/02/20 07:20:03;;;;;;;46.58;21.35;;;;;;;8.83;60.06;97109.94;5006427;28;20451;-62
2022/02/20 07:22:32;;;;;;;53.13;22.58;;;;;;;8.80;60.18;97105.13;5006485;28;20060;-61
2022/02/20 07:24:59;;;;;;;45.55;21.25;;;;;;;8.87;60.73;97119.09;5005909;28;20046;-62
2022/02/20 07:27:26;;;;;;;49.40;23.25;;;;;;;9.07;59.66;97112.50;5006049;28;20128;-60
2022/02/20 07:29:53;;;;;;;44.35;22.90;;;;;;;8.75;58.82;97031.63;5005859;28;20074;-57
2022/02/20 07:32:20;;;;;;;62.15;26.55;;;;;;;8.97;58.91;97060.53;5004406;28;20532;-57
2022/02/20 07:34:47;;;;;;;68.68;28.88;;;;;;;9.44;58.87;97086.09;5004305;28;20049;-57
2022/02/20 07:37:13;;;;;;;74.22;35.08;;;;;;;9.57;58.88;97084.81;5005351;28;20062;-57
2022/02/20 07:39:40;;;;;;;43.40;18.02;;;;;;;9.51;56.74;97058.59;5011721;28;20045;-61
2022/02/20 07:42:07;;;;;;;42.80;18.00;;;;;;;9.38;57.19;97032.25;5025849;28;20072;-58
2022/02/20 07:44:34;;;;;;;39.45;18.38;;;;;;;9.77;56.35;97060.72;5025637;28;20057;-58
2022/02/20 07:47:01;;;;;;;43.97;21.17;;;;;;;10.15;55.60;97104.97;5025156;28;20131;-60
2022/02/20 07:49:29;;;;;;;48.40;22.95;;;;;;;10.18;56.07;97098.75;5025211;28;20053;-61
2022/02/20 07:51:56;;;;;;;36.72;16.92;;;;;;;10.23;56.89;97090.91;4989325;28;20716;-56
2022/02/20 07:54:23;;;;;;;30.10;16.38;;;;;;;10.51;56.33;97096.97;5025686;28;20056;-58
2022/02/20 07:56:50;;;;;;;49.38;23.35;;;;;;;10.55;55.61;97091.50;5025563;28;20054;-62
2022/02/20 07:59:17;;;;;;;46.83;23.15;;;;;;;10.54;55.87;97076.06;5040462;28;20332;-60
2022/02/20 08:01:43;;;;;;;48.67;23.13;;;;;;;10.31;55.74;96990.22;5025834;28;20386;-60
2022/02/20 08:04:10;;;;;;;35.50;16.40;;;;;;;10.30;56.70;97071.69;5025253;28;20497;-60
2022/02/20 08:06:37;;;;;;;28.90;13.68;;;;;;;10.57;56.00;97078.88;5023458;28;20045;-56
2022/02/20 08:09:05;;;;;;;25.77;12.48;;;;;;;10.59;56.53;97065.47;5024726;28;20064;-61
2022/02/20 08:11:33;;;;;;;25.48;11.38;;;;;;;10.39;56.09;96988.34;5025386;28;20057;-57
2022/02/20 08:14:00;;;;;;;29.75;12.38;;;;;;;10.97;56.14;97047.88;5025018;28;20432;-61
2022/02/20 08:16:27;;;;;;;35.30;12.15;;;;;;;11.24;55.68;97040.38;5024850;28;20057;-59
2022/02/20 08:18:54;;;;;;;26.88;11.88;;;;;;;11.43;55.06;97035.47;5024100;28;20053;-59
2022/02/20 08:21:21;;;;;;;31.35;15.77;;;;;;;11.60;54.64;97032.13;5024618;28;20459;-57
2022/02/20 08:23:50;;;;;;;36.13;17.40;;;;;;;11.65;54.50;96992.97;5024399;28;20467;-60
2022/02/20 08:26:17;;;;;;;23.17;11.20;;;;;;;11.92;51.47;97015.88;5024910;28;20050;-61
2022/02/20 08:28:44;;;;;;;21.60;12.43;;;;;;;12.06;51.97;97025.19;5024992;28;20060;-61
2022/02/20 08:31:11;;;;;;;27.90;13.52;;;;;;;12.28;51.71;97014.28;5025314;28;20056;-61
2022/02/20 08:33:38;;;;;;;37.78;15.63;;;;;;;12.41;50.17;97018.41;5024408;28;20049;-57
2022/02/20 08:36:16;;;;;;;25.90;13.05;;;;;;;12.18;49.63;96951.91;5034407;28;20061;-60
2022/02/20 08:38:43;;;;;;;26.20;12.88;;;;;;;12.29;49.27;96952.81;5044633;28;20088;-60
2022/02/20 08:41:10;;;;;;;21.40;11.30;;;;;;;12.71;49.12;97005.94;5026513;28;20409;-57
2022/02/20 08:43:37;;;;;;;23.15;12.60;;;;;;;12.49;48.48;96951.38;5024306;28;20068;-61
2022/02/20 08:46:03;;;;;;;29.77;12.38;;;;;;;12.80;48.91;97008.41;5024313;28;20432;-57
2022/02/20 08:48:35;;;;;;;17.02;8.60;;;;;;;12.89;48.64;97004.13;5024251;28;20433;-57
2022/02/20 08:51:06;;;;;;;15.48;6.88;;;;;;;12.85;48.63;96992.16;5024677;28;20439;-60
2022/02/20 08:53:35;;;;;;;24.60;9.98;;;;;;;13.00;48.69;97010.56;5023140;28;20058;-61
2022/02/20 08:56:03;;;;;;;30.38;13.52;;;;;;;13.12;48.25;97007.47;5023997;28;20046;-61
2022/02/20 08:58:30;;;;;;;20.67;9.75;;;;;;;13.15;47.71;97011.47;5023575;28;20053;-57
2022/02/20 09:00:58;;;;;;;19.15;8.30;;;;;;;13.16;47.17;97008.31;5022490;28;20057;-58
2022/02/20 09:03:25;;;;;;;16.65;8.50;;;;;;;13.11;47.92;97007.84;5023925;28;20065;-56
2022/02/20 09:05:51;;;;;;;19.02;8.70;;;;;;;12.93;48.76;96993.03;5023747;28;20049;-57
2022/02/20 09:08:18;;;;;;;21.98;10.10;;;;;;;13.09;49.06;97013.00;5023512;28;20049;-60
2022/02/20 09:10:45;;;;;;;20.15;8.57;;;;;;;12.96;49.54;97011.72;5022046;28;20056;-60
2022/02/20 09:13:11;;;;;;;17.20;7.90;;;;;;;12.56;49.33;96975.66;5022345;28;20111;-57
2022/02/20 09:15:38;;;;;;;21.20;9.65;;;;;;;12.94;49.50;97005.72;5023617;28;20053;-60
2022/02/20 09:18:05;;;;;;;21.05;8.75;;;;;;;13.07;49.01;96965.34;5023648;28;20069;-55
2022/02/20 09:20:32;;;;;;;14.25;7.88;;;;;;;13.81;48.11;96999.06;5023777;28;20054;-62
2022/02/20 09:23:03;;;;;;;15.98;8.13;;;;;;;14.03;46.55;97017.44;5023557;28;20080;-61
2022/02/20 09:25:30;;;;;;;17.85;8.32;;;;;;;14.02;46.19;96993.59;5023631;28;20076;-58
2022/02/20 09:27:56;;;;;;;13.18;7.07;;;;;;;13.48;47.20;96959.16;5023287;28;20057;-58
2022/02/20 09:30:23;;;;;;;12.38;6.55;;;;;;;14.26;46.80;96988.09;5022508;28;20435;-56
2022/02/20 09:32:50;;;;;;;40.83;15.75;;;;;;;14.57;46.23;96981.78;5023383;28;20055;-55
2022/02/20 09:35:17;;;;;;;20.13;8.27;;;;;;;14.41;45.37;96928.41;5022647;28;20049;-59
2022/02/20 09:37:44;;;;;;;12.63;7.25;;;;;;;14.08;45.76;96911.22;5022590;28;20053;-58
2022/02/20 09:40:11;;;;;;;14.18;6.20;;;;;;;14.50;45.79;96980.94;5031131;28;20086;-57
2022/02/20 09:42:37;;;;;;;9.52;5.03;;;;;;;15.01;45.38;96972.97;5042988;28;20519;-59
2022/02/20 09:45:05;;;;;;;12.15;6.55;;;;;;;15.45;44.58;96958.53;5042919;28;20052;-58
2022/02/20 09:47:32;;;;;;;16.40;8.63;;;;;;;15.72;44.17;96957.63;5043102;28;20056;-60
2022/02/20 09:50:01;;;;;;;20.20;10.02;;;;;;;15.96;44.31;96953.13;5043005;28;20470;-56
2022/02/20 09:52:28;;;;;;;23.35;9.93;;;;;;;16.04;44.02;96949.91;5042450;28;20053;-60
2022/02/20 09:54:55;;;;;;;25.52;9.20;;;;;;;16.34;43.84;96966.84;5041386;28;20060;-60
2022/02/20 09:57:23;;;;;;;13.95;7.57;;;;;;;16.58;42.97;96965.91;5042591;28;20087;-58
2022/02/20 09:59:49;;;;;;;18.05;8.60;;;;;;;16.45;41.17;96878.13;5042541;28;20110;-60
2022/02/20 10:02:20;;;;;;;13.48;6.72;;;;;;;17.14;40.02;96935.81;5043212;28;20056;-60
2022/02/20 10:04:54;;;;;;;14.00;6.55;;;;;;;16.81;40.60;96884.19;5043283;28;20053;-58
2022/02/20 10:07:28;;;;;;;11.25;5.00;;;;;;;16.85;39.52;96929.72;5042737;28;20052;-60
2022/02/20 10:09:57;;;;;;;16.33;6.53;;;;;;;16.84;40.29;96927.31;5042916;28;20052;-58
2022/02/20 10:12:26;;;;;;;11.93;4.72;;;;;;;17.22;37.97;96931.75;5042866;28;20056;-58
2022/02/20 10:14:53;;;;;;;10.20;4.40;;;;;;;17.27;37.24;96897.69;5043177;28;20079;-61
2022/02/20 10:17:22;;;;;;;6.88;4.28;;;;;;;16.72;37.33;96874.69;5042936;28;20053;-58
2022/02/20 10:19:57;;;;;;;10.23;3.85;;;;;;;16.53;37.02;96834.91;5041254;28;20056;-60
2022/02/20 10:22:28;;;;;;;6.53;4.07;;;;;;;16.94;37.21;96910.47;5043293;28;20190;-59
2022/02/20 10:25:04;;;;;;;9.70;4.22;;;;;;;16.40;36.60;96839.41;5043242;28;20076;-59
2022/02/20 10:27:31;;;;;;;10.35;3.75;;;;;;;16.77;36.19;96911.41;5042866;28;20049;-57
2022/02/20 10:30:07;;;;;;;13.65;5.72;;;;;;;16.67;36.57;96908.72;5041667;28;20056;-58
2022/02/20 10:32:34;;;;;;;8.63;3.88;;;;;;;16.68;36.48;96901.94;5042749;28;20055;-59
2022/02/20 10:35:15;;;;;;;9.63;3.65;;;;;;;16.41;35.96;96899.72;5042610;28;20495;-60
2022/02/20 10:37:43;;;;;;;8.05;3.17;;;;;;;16.29;36.09;96896.63;5042675;28;20049;-57
2022/02/20 10:40:21;;;;;;;10.35;3.65;;;;;;;16.11;36.33;96885.56;5033984;28;20054;-57
2022/02/20 10:42:49;;;;;;;9.40;3.50;;;;;;;16.22;36.73;96886.28;5024398;28;20080;-58
2022/02/20 10:45:24;;;;;;;9.60;3.95;;;;;;;16.11;36.87;96863.22;5025047;28;20065;-59
2022/02/20 10:47:52;;;;;;;19.15;4.88;;;;;;;16.30;36.57;96892.59;5025444;28;20053;-60
2022/02/20 10:50:21;;;;;;;17.50;5.60;;;;;;;16.23;37.26;96881.50;5026807;28;20053;-59
2022/02/20 10:53:07;;;;;;;15.27;5.25;;;;;;;16.04;37.18;96851.28;5026828;28;20061;-62
2022/02/20 10:55:47;;;;;;;10.32;3.50;;;;;;;16.26;37.09;96875.06;5026474;28;20423;-59
2022/02/20 10:58:23;;;;;;;11.10;2.53;;;;;;;16.13;37.27;96866.41;5025431;28;20099;-61
2022/02/20 11:00:52;;;;;;;5.60;2.97;;;;;;;15.51;37.83;96784.63;5027202;28;20046;-58
2022/02/20 11:03:21;;;;;;;8.50;3.15;;;;;;;15.74;37.38;96832.34;5026810;28;20077;-58
2022/02/20 11:05:49;;;;;;;7.57;3.15;;;;;;;15.93;37.55;96845.75;5026825;28;20530;-58
2022/02/20 11:08:19;;;;;;;7.95;3.20;;;;;;;16.09;37.30;96854.44;5026860;28;20045;-59
2022/02/20 11:10:46;;;;;;;7.10;3.42;;;;;;;16.23;36.75;96859.91;5026145;28;20530;-61
2022/02/20 11:13:15;;;;;;;8.82;3.00;;;;;;;16.29;36.10;96824.75;5026506;28;20053;-61
2022/02/20 11:15:45;;;;;;;6.25;2.85;;;;;;;16.58;35.97;96837.25;5026062;28;20512;-59
2022/02/20 11:18:16;;;;;;;9.85;3.35;;;;;;;16.80;35.81;96828.66;5024719;28;20061;-61
2022/02/20 11:20:47;;;;;;;9.90;3.13;;;;;;;16.63;35.31;96778.09;5026222;28;20072;-62
2022/02/20 11:23:21;;;;;;;10.45;3.85;;;;;;;16.74;35.23;96738.03;5026014;28;20057;-61
2022/02/20 11:25:51;;;;;;;9.00;3.83;;;;;;;17.47;34.63;96814.66;5025593;28;20523;-60
2022/02/20 11:28:18;;;;;;;11.38;3.85;;;;;;;17.71;34.05;96813.53;5024234;28;20057;-62
2022/02/20 11:30:45;;;;;;;8.00;2.92;;;;;;;17.90;33.78;96805.22;5023881;28;20057;-60